Time;durP1;ratioP1;P1;durP2;ratioP2;P2;SDS_P1;SDS_P2;PMS_P1;PMS_P2;Temp;Humidity;BMP_temperature;BMP_pressure;BME280_temperature;BME280_humidity;BME280_pressure;Samples;Min_cycle;Max_cycle;Signal;HPM_P1;HPM_P2
2024/03/07 00:02:17;;;;;;;7.68;6.93;;;16.10;59.60;;;;;;5133901;27;20187;-63
2024/03/07 00:04:45;;;;;;;7.30;6.60;;;16.00;59.50;;;;;;5133792;27;20183;-64
2024/03/07 00:07:11;;;;;;;7.55;6.85;;;16.00;59.60;;;;;;5133991;27;20173;-64
2024/03/07 00:09:37;;;;;;;8.20;7.40;;;16.00;59.50;;;;;;5134276;27;20678;-64
2024/03/07 00:12:03;;;;;;;8.07;7.28;;;16.00;59.50;;;;;;5133325;27;20691;-64
2024/03/07 00:14:28;;;;;;;8.05;7.25;;;16.00;59.50;;;;;;5133532;27;20176;-64
2024/03/07 00:16:57;;;;;;;7.65;6.85;;;15.90;59.50;;;;;;5133995;27;20550;-64
2024/03/07 00:19:25;;;;;;;8.20;7.40;;;15.90;59.50;;;;;;5132696;27;20573;-64
2024/03/07 00:21:51;;;;;;;9.07;7.40;;;15.90;59.50;;;;;;5133815;27;20642;-64
2024/03/07 00:24:17;;;;;;;8.05;6.97;;;16.00;59.50;;;;;;5133403;27;20220;-64
2024/03/07 00:26:42;;;;;;;8.45;7.50;;;15.90;59.50;;;;;;5133018;27;20255;-64
2024/03/07 00:29:08;;;;;;;8.40;7.55;;;15.90;59.50;;;;;;5133337;27;20261;-64
2024/03/07 00:31:34;;;;;;;8.38;7.57;;;15.90;59.50;;;;;;5133835;27;20172;-63
2024/03/07 00:33:59;;;;;;;8.35;7.55;;;15.90;59.50;;;;;;5132807;27;20619;-64
2024/03/07 00:36:25;;;;;;;7.90;7.15;;;15.90;59.50;;;;;;5133198;27;20222;-65
2024/03/07 00:38:53;;;;;;;8.60;7.70;;;15.80;59.40;;;;;;5133495;27;20545;-65
2024/03/07 00:41:20;;;;;;;8.57;7.70;;;15.80;59.40;;;;;;5132354;27;20510;-64
2024/03/07 00:43:46;;;;;;;9.65;8.65;;;15.80;59.40;;;;;;5132560;27;20180;-64
2024/03/07 00:46:11;;;;;;;8.10;7.30;;;15.80;59.40;;;;;;5132991;27;20174;-64
2024/03/07 00:48:37;;;;;;;8.63;7.82;;;15.80;59.40;;;;;;5132729;27;20183;-64
2024/03/07 00:51:04;;;;;;;8.13;7.32;;;15.80;59.50;;;;;;5133339;27;20192;-64
2024/03/07 00:53:29;;;;;;;8.07;7.38;;;15.80;59.40;;;;;;5132224;27;20204;-64
2024/03/07 00:55:55;;;;;;;7.85;7.15;;;15.80;59.50;;;;;;5133243;27;20223;-64
2024/03/07 00:58:21;;;;;;;9.13;7.90;;;15.80;59.50;;;;;;5132470;27;20235;-64
2024/03/07 01:00:47;;;;;;;9.50;8.50;;;15.80;59.50;;;;;;5132586;27;20176;-64
2024/03/07 01:03:13;;;;;;;9.50;8.60;;;15.80;59.40;;;;;;5133058;27;20168;-64
2024/03/07 01:05:39;;;;;;;9.13;8.23;;;15.70;59.40;;;;;;5133325;27;20176;-64
2024/03/07 01:08:05;;;;;;;8.98;8.15;;;15.80;59.40;;;;;;5132611;27;20186;-63
2024/03/07 01:10:31;;;;;;;7.95;7.22;;;15.80;59.40;;;;;;5132782;27;20259;-64
2024/03/07 01:13:01;;;;;;;8.75;7.85;;;15.80;59.40;;;;;;5133082;27;20196;-64
2024/03/07 01:15:26;;;;;;;8.60;7.80;;;15.70;59.40;;;;;;5132437;27;20175;-64
2024/03/07 01:17:52;;;;;;;9.13;8.15;;;15.70;59.40;;;;;;5132836;27;20216;-64
2024/03/07 01:20:18;;;;;;;9.35;8.40;;;15.70;59.40;;;;;;5132059;28;20176;-64
2024/03/07 01:22:43;;;;;;;9.38;8.48;;;15.70;59.40;;;;;;5132284;27;20172;-65
2024/03/07 01:25:09;;;;;;;9.10;8.20;;;15.70;59.40;;;;;;5132564;28;20233;-63
2024/03/07 01:27:35;;;;;;;9.32;8.13;;;15.70;59.40;;;;;;5132817;28;20244;-63
2024/03/07 01:30:01;;;;;;;10.50;9.05;;;15.70;59.40;;;;;;5132361;28;20168;-64
2024/03/07 01:32:28;;;;;;;9.15;8.25;;;15.70;59.40;;;;;;5132486;27;20722;-64
2024/03/07 01:34:53;;;;;;;9.88;8.88;;;15.60;59.30;;;;;;5132757;27;20173;-64
2024/03/07 01:37:19;;;;;;;10.40;8.75;;;15.60;59.30;;;;;;5131721;27;20257;-64
2024/03/07 01:39:44;;;;;;;9.60;8.57;;;15.70;59.60;;;;;;5132707;28;20205;-64
2024/03/07 01:42:10;;;;;;;9.50;8.60;;;15.60;59.30;;;;;;5132532;28;20180;-64
2024/03/07 01:44:36;;;;;;;9.82;8.50;;;15.70;59.40;;;;;;5131815;28;20179;-64
2024/03/07 01:47:03;;;;;;;10.30;9.05;;;15.60;59.30;;;;;;5132836;27;20203;-64
2024/03/07 01:49:29;;;;;;;9.18;8.27;;;15.60;59.30;;;;;;5131365;28;20723;-64
2024/03/07 01:51:55;;;;;;;9.55;8.65;;;15.60;59.30;;;;;;5131991;27;20233;-63
2024/03/07 01:54:20;;;;;;;9.98;8.90;;;15.60;59.30;;;;;;5133328;27;20173;-64
2024/03/07 01:56:46;;;;;;;10.10;9.10;;;15.60;59.30;;;;;;5134611;27;20629;-64
2024/03/07 01:59:11;;;;;;;10.52;9.32;;;15.60;59.30;;;;;;5136060;27;20220;-63
2024/03/07 02:01:37;;;;;;;10.23;9.00;;;15.50;59.30;;;;;;5118411;27;20178;-63
2024/03/07 02:04:09;;;;;;;10.45;9.45;;;15.60;59.30;;;;;;5117402;27;20794;-64
2024/03/07 02:06:34;;;;;;;9.52;8.63;;;15.60;59.40;;;;;;5136455;27;20203;-64
2024/03/07 02:09:01;;;;;;;9.65;8.73;;;15.50;59.30;;;;;;5135141;27;20200;-64
2024/03/07 02:11:27;;;;;;;10.40;9.43;;;15.50;59.30;;;;;;5135533;27;20185;-63
2024/03/07 02:13:52;;;;;;;10.52;9.43;;;15.50;59.30;;;;;;5136248;27;20229;-64
2024/03/07 02:16:18;;;;;;;10.27;9.18;;;15.50;59.30;;;;;;5135802;27;20252;-63
2024/03/07 02:18:44;;;;;;;9.68;8.77;;;15.50;59.30;;;;;;5135614;27;20172;-64
2024/03/07 02:21:11;;;;;;;9.82;8.85;;;15.50;59.50;;;;;;5117676;27;20172;-63
2024/03/07 02:23:37;;;;;;;9.60;8.70;;;15.50;59.30;;;;;;5136078;27;20706;-63
2024/03/07 02:26:03;;;;;;;9.63;8.73;;;15.50;59.30;;;;;;5135600;27;20259;-63
2024/03/07 02:28:28;;;;;;;10.25;9.23;;;15.50;59.30;;;;;;5135637;27;20682;-63
2024/03/07 02:30:57;;;;;;;10.50;9.40;;;15.50;59.30;;;;;;5136031;27;20180;-63
2024/03/07 02:33:23;;;;;;;10.13;9.23;;;15.50;59.30;;;;;;5134994;27;20216;-63
2024/03/07 02:35:49;;;;;;;10.63;9.52;;;15.50;59.30;;;;;;5135955;27;20177;-64
2024/03/07 02:38:14;;;;;;;11.00;9.73;;;15.50;59.30;;;;;;5135519;27;20215;-64
2024/03/07 02:40:40;;;;;;;10.75;9.63;;;15.50;59.20;;;;;;5135084;27;20172;-63
2024/03/07 02:43:06;;;;;;;10.32;9.43;;;15.50;59.30;;;;;;5134419;27;20172;-64
2024/03/07 02:45:31;;;;;;;10.57;9.48;;;15.40;59.20;;;;;;5135273;27;20225;-63
2024/03/07 02:47:57;;;;;;;10.38;9.27;;;15.40;59.20;;;;;;5135058;27;20172;-63
2024/03/07 02:50:22;;;;;;;11.38;10.15;;;15.40;59.20;;;;;;5135309;27;20657;-64
2024/03/07 02:52:49;;;;;;;10.30;9.30;;;15.40;59.20;;;;;;5135492;27;20620;-63
2024/03/07 02:55:15;;;;;;;9.88;8.93;;;15.40;59.20;;;;;;5134427;27;20623;-64
2024/03/07 02:57:41;;;;;;;11.23;10.13;;;15.40;59.20;;;;;;5135149;27;20578;-63
2024/03/07 03:00:19;;;;;;;10.65;9.48;;;15.40;59.20;;;;;;5134787;27;20214;-63
2024/03/07 03:02:47;;;;;;;10.40;9.50;;;15.40;59.20;;;;;;5135348;27;20213;-63
2024/03/07 03:05:18;;;;;;;10.18;9.18;;;15.40;59.20;;;;;;5134789;27;20259;-63
2024/03/07 03:07:52;;;;;;;10.70;9.60;;;15.40;59.20;;;;;;5134219;27;20188;-63
2024/03/07 03:10:20;;;;;;;11.32;10.20;;;15.30;59.20;;;;;;5135098;27;20220;-63
2024/03/07 03:12:47;;;;;;;10.85;9.75;;;15.30;59.10;;;;;;5135263;27;20203;-63
2024/03/07 03:15:12;;;;;;;10.80;9.70;;;15.40;59.20;;;;;;5134157;27;20179;-63
2024/03/07 03:17:38;;;;;;;10.63;9.55;;;15.30;59.10;;;;;;5135028;27;20212;-63
2024/03/07 03:20:25;;;;;;;11.02;9.68;;;15.30;59.10;;;;;;5134893;27;20168;-63
2024/03/07 03:22:53;;;;;;;11.50;10.30;;;15.40;59.80;;;;;;5134498;27;20202;-63
2024/03/07 03:25:20;;;;;;;11.10;9.68;;;15.30;59.10;;;;;;5134582;27;20204;-63
2024/03/07 03:27:46;;;;;;;11.88;10.20;;;15.30;59.10;;;;;;5134899;27;20191;-63
2024/03/07 03:30:14;;;;;;;11.48;10.27;;;15.40;59.20;;;;;;5133710;27;20180;-64
2024/03/07 03:32:40;;;;;;;10.38;9.27;;;15.30;59.10;;;;;;5135005;27;20176;-63
2024/03/07 03:35:07;;;;;;;10.88;9.77;;;15.30;59.10;;;;;;5134691;27;20895;-65
2024/03/07 03:37:33;;;;;;;10.70;9.57;;;15.30;59.10;;;;;;5134149;27;20292;-64
2024/03/07 03:39:58;;;;;;;10.77;9.68;;;15.30;59.10;;;;;;5134703;27;20160;-64
2024/03/07 03:42:24;;;;;;;10.25;9.18;;;15.30;59.20;;;;;;5133634;27;20233;-64
2024/03/07 03:44:49;;;;;;;10.75;9.75;;;15.30;59.10;;;;;;5134428;27;20209;-64
2024/03/07 03:47:15;;;;;;;10.75;9.75;;;15.30;59.10;;;;;;5134346;27;20168;-64
2024/03/07 03:49:40;;;;;;;10.30;9.25;;;15.30;59.10;;;;;;5133903;27;20169;-63
2024/03/07 03:52:06;;;;;;;13.32;10.25;;;15.30;59.10;;;;;;5134558;27;20183;-64
2024/03/07 03:54:31;;;;;;;11.52;10.27;;;15.30;59.10;;;;;;5134290;27;20183;-64
2024/03/07 03:56:58;;;;;;;10.15;9.02;;;15.20;59.10;;;;;;5133494;27;20204;-64
2024/03/07 03:59:27;;;;;;;11.13;10.02;;;15.20;59.00;;;;;;5133782;27;20243;-63
2024/03/07 04:01:52;;;;;;;11.18;10.02;;;15.20;59.00;;;;;;5134402;27;20176;-63
2024/03/07 04:04:21;;;;;;;10.77;9.75;;;15.30;59.10;;;;;;5133298;27;20217;-63
2024/03/07 04:06:47;;;;;;;12.23;10.40;;;15.30;59.10;;;;;;5134215;27;20172;-64
2024/03/07 04:09:15;;;;;;;11.02;9.93;;;15.20;59.10;;;;;;5133749;27;20526;-64
2024/03/07 04:11:40;;;;;;;10.35;9.30;;;15.20;59.00;;;;;;5133291;27;20197;-64
2024/03/07 04:14:06;;;;;;;11.15;9.95;;;15.20;59.10;;;;;;5133958;27;20650;-63
2024/03/07 04:16:31;;;;;;;11.10;10.00;;;15.20;59.00;;;;;;5133350;27;20654;-64
2024/03/07 04:18:57;;;;;;;11.05;9.90;;;15.20;59.00;;;;;;5133238;27;20169;-64
2024/03/07 04:21:25;;;;;;;10.73;9.73;;;15.20;59.00;;;;;;5133457;27;20647;-64
2024/03/07 04:23:50;;;;;;;11.30;10.18;;;15.20;59.00;;;;;;5133810;27;20176;-63
2024/03/07 04:26:16;;;;;;;11.32;10.05;;;15.20;59.00;;;;;;5132681;27;20176;-63
2024/03/07 04:28:41;;;;;;;11.57;10.48;;;15.20;59.00;;;;;;5133514;27;20168;-63
2024/03/07 04:31:07;;;;;;;10.98;9.88;;;15.20;59.00;;;;;;5133836;27;20529;-63
2024/03/07 04:33:32;;;;;;;10.85;9.75;;;15.20;59.00;;;;;;5132795;27;20530;-64
2024/03/07 04:36:00;;;;;;;10.70;9.65;;;15.10;59.00;;;;;;5133424;27;20250;-65
2024/03/07 04:38:28;;;;;;;11.02;10.02;;;15.20;59.00;;;;;;5132779;27;20237;-65
2024/03/07 04:40:53;;;;;;;12.05;10.55;;;15.20;59.10;;;;;;5133523;27;20192;-65
2024/03/07 04:43:19;;;;;;;11.52;10.27;;;15.20;59.10;;;;;;5133098;27;20245;-65
2024/03/07 04:45:45;;;;;;;11.63;10.43;;;15.10;59.00;;;;;;5132791;27;20222;-64
2024/03/07 04:48:11;;;;;;;10.80;9.80;;;15.10;59.00;;;;;;5133020;27;20179;-64
2024/03/07 04:50:36;;;;;;;11.93;9.65;;;15.10;59.00;;;;;;5133474;27;20267;-64
2024/03/07 04:53:02;;;;;;;10.82;9.82;;;15.10;59.00;;;;;;5132684;27;20173;-64
2024/03/07 04:55:27;;;;;;;10.98;9.88;;;15.10;59.00;;;;;;5132955;27;20176;-64
2024/03/07 04:57:53;;;;;;;11.63;10.43;;;15.10;59.00;;;;;;5132859;27;20264;-64
2024/03/07 05:00:21;;;;;;;11.18;10.07;;;15.10;59.00;;;;;;5132406;27;20164;-64
2024/03/07 05:02:49;;;;;;;11.05;9.85;;;15.60;59.20;;;;;;5133024;27;20204;-63
2024/03/07 05:05:21;;;;;;;10.90;9.75;;;15.10;59.00;;;;;;5132758;27;20635;-64
2024/03/07 05:07:49;;;;;;;11.82;10.45;;;15.10;59.00;;;;;;5132493;27;20184;-64
2024/03/07 05:10:15;;;;;;;11.30;10.10;;;15.00;58.90;;;;;;5132633;27;20176;-64
2024/03/07 05:12:40;;;;;;;11.35;10.35;;;15.10;59.60;;;;;;5133205;27;20585;-64
2024/03/07 05:15:09;;;;;;;11.50;10.30;;;15.10;59.00;;;;;;5132177;27;20572;-64
2024/03/07 05:17:37;;;;;;;12.10;11.00;;;15.00;59.00;;;;;;5133048;27;20215;-64
2024/03/07 05:20:09;;;;;;;11.52;10.43;;;15.00;58.90;;;;;;5132844;27;20631;-64
2024/03/07 05:22:38;;;;;;;12.73;10.68;;;15.00;59.00;;;;;;5132345;27;20201;-64
2024/03/07 05:25:05;;;;;;;11.68;10.50;;;15.00;59.00;;;;;;5133066;27;20165;-63
2024/03/07 05:27:31;;;;;;;12.13;10.93;;;15.00;58.90;;;;;;5132779;27;20224;-63
2024/03/07 05:29:57;;;;;;;11.63;10.48;;;15.00;59.00;;;;;;5134455;27;20172;-63
2024/03/07 05:32:24;;;;;;;11.63;9.98;;;15.00;58.90;;;;;;5136718;27;20180;-64
2024/03/07 05:34:50;;;;;;;10.75;9.65;;;15.00;59.00;;;;;;5136474;27;20176;-64
2024/03/07 05:37:15;;;;;;;11.15;10.05;;;15.00;58.90;;;;;;5136560;27;20245;-64
2024/03/07 05:39:41;;;;;;;11.15;9.90;;;15.00;58.90;;;;;;5137165;27;20172;-64
2024/03/07 05:42:07;;;;;;;11.32;10.23;;;15.00;59.00;;;;;;5136359;27;20181;-64
2024/03/07 05:44:35;;;;;;;12.35;10.15;;;15.00;58.90;;;;;;5136579;27;20619;-63
2024/03/07 05:47:00;;;;;;;11.77;10.57;;;15.00;59.00;;;;;;5136739;27;20639;-63
2024/03/07 05:49:26;;;;;;;11.38;10.27;;;15.00;58.90;;;;;;5135660;27;20215;-63
2024/03/07 05:51:51;;;;;;;11.20;10.07;;;15.00;58.90;;;;;;5136684;27;20263;-64
2024/03/07 05:54:17;;;;;;;11.88;10.68;;;15.00;58.90;;;;;;5136323;27;20251;-64
2024/03/07 05:56:42;;;;;;;11.38;10.23;;;15.10;58.80;;;;;;5135973;27;20208;-63
2024/03/07 05:59:11;;;;;;;11.13;10.13;;;15.10;58.80;;;;;;5136186;27;20291;-63
2024/03/07 06:01:37;;;;;;;10.55;9.50;;;15.20;58.70;;;;;;5136623;27;20187;-62
2024/03/07 06:04:08;;;;;;;9.90;8.93;;;15.30;59.10;;;;;;5135756;27;20173;-64
2024/03/07 06:06:37;;;;;;;10.57;9.48;;;15.30;58.40;;;;;;5136438;27;20169;-63
2024/03/07 06:09:07;;;;;;;10.05;9.05;;;15.40;58.40;;;;;;5136614;27;20176;-63
2024/03/07 06:11:37;;;;;;;10.25;9.23;;;15.50;58.40;;;;;;5135785;27;20197;-63
2024/03/07 06:14:03;;;;;;;10.60;9.55;;;15.50;58.40;;;;;;5136472;27;20221;-64
2024/03/07 06:16:33;;;;;;;9.55;8.65;;;15.60;58.30;;;;;;5135942;27;20635;-63
2024/03/07 06:19:11;;;;;;;9.68;8.68;;;15.60;58.20;;;;;;5135534;27;20176;-63
2024/03/07 06:21:41;;;;;;;9.10;8.30;;;15.70;58.10;;;;;;5136393;27;20179;-62
2024/03/07 06:24:08;;;;;;;10.50;8.57;;;15.80;58.00;;;;;;5135626;27;20188;-62
2024/03/07 06:26:44;;;;;;;9.65;8.65;;;15.80;57.90;;;;;;5136265;27;20180;-62
2024/03/07 06:29:13;;;;;;;9.38;8.55;;;15.90;57.80;;;;;;5135953;27;20229;-62
2024/03/07 06:31:40;;;;;;;8.93;8.02;;;16.00;57.60;;;;;;5135206;27;20263;-62
2024/03/07 06:34:06;;;;;;;8.77;7.85;;;16.10;57.60;;;;;;5136119;27;20169;-63
2024/03/07 06:36:32;;;;;;;9.07;8.18;;;16.10;57.50;;;;;;5135555;27;20177;-63
2024/03/07 06:38:58;;;;;;;8.55;7.72;;;16.10;57.50;;;;;;5135096;27;20195;-63
2024/03/07 06:41:24;;;;;;;8.50;7.60;;;16.10;57.50;;;;;;5134173;27;20659;-63
2024/03/07 06:43:50;;;;;;;9.02;8.13;;;16.10;57.40;;;;;;5135684;27;20203;-63
2024/03/07 06:46:16;;;;;;;9.02;8.07;;;16.20;57.30;;;;;;5134553;27;20639;-63
2024/03/07 06:48:42;;;;;;;8.90;8.00;;;16.20;57.20;;;;;;5135581;27;20168;-62
2024/03/07 06:51:08;;;;;;;8.15;7.35;;;16.20;57.20;;;;;;5135491;27;20183;-62
2024/03/07 06:53:33;;;;;;;8.55;7.78;;;16.20;57.20;;;;;;5134810;27;20172;-63
2024/03/07 06:55:59;;;;;;;8.57;7.68;;;16.20;57.20;;;;;;5135529;27;20184;-62
2024/03/07 06:58:26;;;;;;;8.65;7.78;;;16.10;57.30;;;;;;5134770;27;20311;-62
2024/03/07 07:00:53;;;;;;;8.63;7.82;;;16.10;57.40;;;;;;5134625;27;20176;-62
2024/03/07 07:03:20;;;;;;;8.23;7.43;;;16.20;57.40;;;;;;5135196;27;20215;-62
2024/03/07 07:05:45;;;;;;;8.18;7.38;;;16.30;57.40;;;;;;5135343;27;20172;-62
2024/03/07 07:08:12;;;;;;;9.13;8.23;;;16.40;57.30;;;;;;5134563;27;20556;-63
2024/03/07 07:10:40;;;;;;;8.05;7.28;;;16.60;57.10;;;;;;5135351;27;20176;-63
2024/03/07 07:13:05;;;;;;;6.43;5.90;;;16.80;56.90;;;;;;5135254;27;20703;-63
2024/03/07 07:15:34;;;;;;;7.80;7.10;;;16.90;56.70;;;;;;5134382;27;20180;-64
2024/03/07 07:18:01;;;;;;;7.38;6.68;;;17.10;56.30;;;;;;5135159;27;20362;-63
2024/03/07 07:20:27;;;;;;;7.95;7.20;;;17.30;56.00;;;;;;5134109;27;20223;-63
2024/03/07 07:22:53;;;;;;;6.97;6.38;;;17.50;55.70;;;;;;5135046;27;20627;-63
2024/03/07 07:25:20;;;;;;;7.78;7.05;;;17.60;55.40;;;;;;5134307;27;20568;-62
2024/03/07 07:27:52;;;;;;;6.70;6.10;;;17.60;55.40;;;;;;5133994;27;20180;-62
2024/03/07 07:30:19;;;;;;;6.38;5.88;;;17.60;55.30;;;;;;5134571;27;20177;-62
2024/03/07 07:32:45;;;;;;;6.95;6.35;;;17.70;55.20;;;;;;5134642;27;20181;-63
2024/03/07 07:35:14;;;;;;;7.10;6.45;;;17.70;55.30;;;;;;5133475;27;20183;-64
2024/03/07 07:37:40;;;;;;;7.10;6.40;;;17.70;55.30;;;;;;5134556;27;20223;-63
2024/03/07 07:40:14;;;;;;;7.88;7.10;;;17.60;55.50;;;;;;5134905;27;20733;-63
2024/03/07 07:42:43;;;;;;;7.20;6.60;;;17.60;55.70;;;;;;5133886;27;20627;-61
2024/03/07 07:45:12;;;;;;;7.65;6.95;;;17.60;55.50;;;;;;5134497;27;20172;-60
2024/03/07 07:47:42;;;;;;;9.07;7.65;;;17.50;55.60;;;;;;5134580;27;20549;-64
2024/03/07 07:50:17;;;;;;;10.57;8.27;;;17.60;55.30;;;;;;5133919;27;20183;-62
2024/03/07 07:52:44;;;;;;;8.90;7.88;;;17.50;54.80;;;;;;5134146;27;20176;-64
2024/03/07 07:55:14;;;;;;;9.05;8.07;;;17.60;54.90;;;;;;5134275;27;20176;-64
2024/03/07 07:57:41;;;;;;;8.30;7.50;;;17.60;54.90;;;;;;5133507;27;20232;-63
2024/03/07 08:00:09;;;;;;;8.32;7.43;;;17.70;55.00;;;;;;5134295;27;20169;-63
2024/03/07 08:02:35;;;;;;;7.93;7.15;;;17.70;54.90;;;;;;5133575;27;20169;-63
2024/03/07 08:05:01;;;;;;;8.15;6.45;;;17.70;55.00;;;;;;5134112;27;20175;-63
2024/03/07 08:07:26;;;;;;;7.78;6.97;;;17.70;55.20;;;;;;5133304;27;20274;-63
2024/03/07 08:09:52;;;;;;;7.97;7.18;;;17.70;55.10;;;;;;5133486;27;20213;-63
2024/03/07 08:12:17;;;;;;;7.80;6.72;;;17.80;55.20;;;;;;5133791;27;20168;-63
2024/03/07 08:14:44;;;;;;;7.30;6.68;;;17.80;55.20;;;;;;5134007;27;20206;-64
2024/03/07 08:17:10;;;;;;;7.20;6.60;;;17.80;55.20;;;;;;5132817;27;20223;-64
2024/03/07 08:19:36;;;;;;;6.40;5.80;;;17.70;55.40;;;;;;5133942;27;20191;-64
2024/03/07 08:22:02;;;;;;;6.78;6.07;;;17.60;55.50;;;;;;5118044;27;20177;-63
2024/03/07 08:24:27;;;;;;;6.35;5.75;;;17.60;55.60;;;;;;5112313;28;20180;-63
2024/03/07 08:26:53;;;;;;;6.82;6.22;;;17.50;55.80;;;;;;5113175;28;20173;-63
2024/03/07 08:29:19;;;;;;;6.82;6.22;;;17.50;56.00;;;;;;5112969;28;20255;-62
2024/03/07 08:31:44;;;;;;;6.38;5.78;;;17.40;56.10;;;;;;5112432;28;20569;-63
2024/03/07 08:34:10;;;;;;;6.70;6.05;;;17.40;56.30;;;;;;5112885;28;20243;-65
2024/03/07 08:36:36;;;;;;;7.15;6.45;;;17.30;56.40;;;;;;5112904;28;20632;-64
2024/03/07 08:39:03;;;;;;;7.18;6.47;;;17.20;56.50;;;;;;5112317;28;20177;-64
2024/03/07 08:41:31;;;;;;;7.22;6.53;;;17.20;56.50;;;;;;5112778;28;20260;-64
2024/03/07 08:43:56;;;;;;;6.72;5.90;;;17.20;56.60;;;;;;5113013;28;20181;-63
2024/03/07 08:46:22;;;;;;;7.07;6.38;;;17.20;56.60;;;;;;5111952;28;20640;-64
2024/03/07 08:48:48;;;;;;;6.80;6.20;;;17.20;56.80;;;;;;5112661;28;20652;-63
2024/03/07 08:51:15;;;;;;;7.00;6.30;;;17.10;56.80;;;;;;5112488;28;20173;-64
2024/03/07 08:53:40;;;;;;;6.55;5.55;;;17.10;56.90;;;;;;5112264;28;20180;-64
2024/03/07 08:56:06;;;;;;;7.18;5.63;;;17.10;57.00;;;;;;5112856;28;20169;-64
2024/03/07 08:58:32;;;;;;;6.75;6.15;;;17.10;57.00;;;;;;5112229;28;20270;-63
2024/03/07 09:00:58;;;;;;;6.53;5.93;;;17.10;57.10;;;;;;5111908;28;20604;-63
2024/03/07 09:03:25;;;;;;;6.80;6.20;;;17.10;57.10;;;;;;5111670;28;20716;-64
2024/03/07 09:05:52;;;;;;;6.18;5.68;;;17.00;57.10;;;;;;5111556;28;20652;-64
2024/03/07 09:08:17;;;;;;;6.15;5.63;;;17.10;57.10;;;;;;5112132;28;20662;-63
2024/03/07 09:10:46;;;;;;;6.78;6.18;;;17.10;57.20;;;;;;5112666;28;20173;-63
2024/03/07 09:13:11;;;;;;;5.90;5.35;;;17.00;57.20;;;;;;5111622;28;20207;-63
2024/03/07 09:15:37;;;;;;;7.28;5.35;;;17.10;57.20;;;;;;5112506;28;20196;-63
2024/03/07 09:18:03;;;;;;;6.18;5.60;;;17.10;57.30;;;;;;5112155;28;20320;-64
2024/03/07 09:20:31;;;;;;;6.40;5.70;;;17.10;57.30;;;;;;5111385;28;20177;-64
2024/03/07 09:22:56;;;;;;;6.32;5.68;;;17.10;57.30;;;;;;5112593;28;20592;-63
2024/03/07 09:25:23;;;;;;;6.18;5.68;;;17.10;57.90;;;;;;5112139;28;20179;-63
2024/03/07 09:27:48;;;;;;;5.78;5.28;;;17.10;57.30;;;;;;5111807;28;20184;-63
2024/03/07 09:30:24;;;;;;;6.50;5.90;;;17.10;57.30;;;;;;5112114;28;20577;-63
2024/03/07 09:32:49;;;;;;;6.43;5.68;;;17.10;57.30;;;;;;5112288;28;20181;-63
2024/03/07 09:35:16;;;;;;;5.80;5.30;;;17.10;57.30;;;;;;5111404;28;20277;-64
2024/03/07 09:37:42;;;;;;;7.22;6.55;;;17.10;57.30;;;;;;5112306;28;20273;-64
2024/03/07 09:40:11;;;;;;;5.88;5.38;;;17.10;57.30;;;;;;5112109;28;20169;-64
2024/03/07 09:42:42;;;;;;;6.38;5.78;;;17.20;57.40;;;;;;5111510;28;20184;-63
2024/03/07 09:45:08;;;;;;;6.18;5.68;;;17.20;57.40;;;;;;5110811;28;20180;-63
2024/03/07 09:47:34;;;;;;;6.20;5.57;;;17.20;57.30;;;;;;5110822;28;20177;-63
2024/03/07 09:49:59;;;;;;;6.40;5.78;;;17.20;57.30;;;;;;5111625;28;20193;-64
2024/03/07 09:52:25;;;;;;;6.93;6.22;;;17.20;57.40;;;;;;5110808;28;20173;-64
2024/03/07 09:54:51;;;;;;;6.18;5.57;;;17.10;57.40;;;;;;5110997;28;20173;-63
2024/03/07 09:57:16;;;;;;;6.40;5.70;;;17.20;57.40;;;;;;5110937;28;20212;-64
2024/03/07 09:59:42;;;;;;;6.65;5.95;;;17.20;57.50;;;;;;5112108;28;20169;-63
2024/03/07 10:02:08;;;;;;;5.95;5.45;;;17.10;57.50;;;;;;5110098;28;20581;-63
2024/03/07 10:04:43;;;;;;;6.05;5.45;;;17.10;57.60;;;;;;5110947;28;20173;-63
2024/03/07 10:07:12;;;;;;;6.03;5.53;;;17.10;57.60;;;;;;5111602;28;20172;-63
2024/03/07 10:09:38;;;;;;;6.10;5.50;;;17.10;57.60;;;;;;5109844;28;20215;-63
2024/03/07 10:12:04;;;;;;;6.57;5.97;;;17.10;57.60;;;;;;5110668;28;20185;-64
2024/03/07 10:14:32;;;;;;;6.80;5.68;;;17.10;57.60;;;;;;5111582;28;20177;-63
2024/03/07 10:16:58;;;;;;;6.50;5.93;;;17.00;57.60;;;;;;5114893;28;20581;-64
2024/03/07 10:19:24;;;;;;;6.43;5.82;;;17.00;57.60;;;;;;5115537;28;20173;-63
2024/03/07 10:21:51;;;;;;;6.40;5.80;;;17.00;57.60;;;;;;5115674;28;20230;-64
2024/03/07 10:24:17;;;;;;;5.68;5.28;;;17.00;57.70;;;;;;5114660;28;20197;-64
2024/03/07 10:26:43;;;;;;;7.72;6.20;;;17.00;57.70;;;;;;5115535;28;20539;-62
2024/03/07 10:29:08;;;;;;;6.90;6.30;;;16.90;57.70;;;;;;5115088;28;20177;-63
2024/03/07 10:31:34;;;;;;;6.40;5.90;;;16.90;57.70;;;;;;5114949;28;20180;-63
2024/03/07 10:34:03;;;;;;;6.80;6.10;;;16.90;57.60;;;;;;5115348;28;20201;-64
2024/03/07 10:36:30;;;;;;;6.35;5.85;;;16.90;57.70;;;;;;5114991;28;20269;-65
2024/03/07 10:39:16;;;;;;;6.75;6.10;;;16.90;57.70;;;;;;5114650;28;20181;-64
2024/03/07 10:41:49;;;;;;;6.63;6.03;;;16.90;57.60;;;;;;5115128;28;20177;-64
2024/03/07 10:44:25;;;;;;;6.20;5.60;;;16.90;57.50;;;;;;5114478;28;20181;-64
2024/03/07 10:47:03;;;;;;;6.20;5.70;;;16.90;57.50;;;;;;5115159;28;20663;-64
2024/03/07 10:49:30;;;;;;;6.20;5.70;;;16.90;57.50;;;;;;5113710;28;20226;-64
2024/03/07 10:51:56;;;;;;;6.55;5.95;;;16.90;57.50;;;;;;5113103;28;20260;-64
2024/03/07 10:54:38;;;;;;;6.70;6.10;;;16.90;57.50;;;;;;5114647;28;20264;-64
2024/03/07 10:57:21;;;;;;;7.10;6.40;;;16.90;57.50;;;;;;5113535;28;20213;-65
2024/03/07 10:59:50;;;;;;;7.45;6.78;;;16.90;57.50;;;;;;5113063;28;20238;-63
2024/03/07 11:02:32;;;;;;;6.40;5.80;;;16.90;57.50;;;;;;5114477;28;20176;-64
2024/03/07 11:04:59;;;;;;;6.70;6.10;;;16.80;57.50;;;;;;5113742;28;20177;-64
2024/03/07 11:07:24;;;;;;;6.40;5.80;;;16.80;57.50;;;;;;5112523;28;20169;-64
2024/03/07 11:09:51;;;;;;;6.97;6.38;;;16.80;57.50;;;;;;5113534;28;20183;-64
2024/03/07 11:12:20;;;;;;;6.72;6.13;;;16.80;57.50;;;;;;5113031;28;20173;-64
2024/03/07 11:14:47;;;;;;;6.38;5.85;;;16.80;57.50;;;;;;5113277;28;20237;-63
2024/03/07 11:17:13;;;;;;;7.22;6.60;;;16.70;57.40;;;;;;5114142;28;20658;-64
2024/03/07 11:19:39;;;;;;;6.45;5.90;;;16.80;57.50;;;;;;5112789;28;20251;-63
2024/03/07 11:22:15;;;;;;;6.35;5.85;;;16.70;57.50;;;;;;5114633;28;20646;-64
2024/03/07 11:24:42;;;;;;;7.03;6.32;;;16.70;57.50;;;;;;5113438;28;20251;-63
2024/03/07 11:27:09;;;;;;;7.32;6.43;;;16.70;57.50;;;;;;5112844;28;20173;-63
2024/03/07 11:29:42;;;;;;;6.78;6.18;;;16.80;57.50;;;;;;5113029;28;20584;-63
2024/03/07 11:32:12;;;;;;;7.05;6.35;;;16.80;57.50;;;;;;5114077;28;20700;-63
2024/03/07 11:34:41;;;;;;;6.95;6.35;;;16.80;57.50;;;;;;5112496;28;20184;-64
2024/03/07 11:37:07;;;;;;;7.43;6.75;;;16.80;57.50;;;;;;5113982;28;20220;-64
2024/03/07 11:39:43;;;;;;;6.70;6.10;;;16.80;57.50;;;;;;5112772;28;20184;-64
2024/03/07 11:42:30;;;;;;;7.13;6.45;;;16.80;57.50;;;;;;5112961;28;20192;-64
2024/03/07 11:44:56;;;;;;;7.22;6.63;;;16.70;57.40;;;;;;5114271;28;20248;-64
2024/03/07 11:47:24;;;;;;;7.53;6.78;;;16.70;57.40;;;;;;5113882;28;20265;-64
2024/03/07 11:49:52;;;;;;;7.07;6.47;;;16.70;57.40;;;;;;5113306;28;20505;-64
2024/03/07 11:52:18;;;;;;;7.15;6.45;;;16.70;57.40;;;;;;5113654;28;20177;-64
2024/03/07 11:54:46;;;;;;;6.72;6.13;;;16.70;57.30;;;;;;5113158;28;20219;-64
2024/03/07 11:57:15;;;;;;;7.53;6.85;;;16.70;57.30;;;;;;5113076;28;20641;-64
2024/03/07 11:59:45;;;;;;;7.00;6.40;;;16.70;57.30;;;;;;5113739;28;20173;-65
2024/03/07 12:02:15;;;;;;;7.10;6.43;;;16.70;57.30;;;;;;5112716;27;20181;-64
2024/03/07 12:04:41;;;;;;;7.30;6.57;;;16.70;57.30;;;;;;5113600;28;20616;-63
2024/03/07 12:07:10;;;;;;;8.02;7.25;;;16.80;57.30;;;;;;5113464;28;20185;-63
2024/03/07 12:09:38;;;;;;;6.75;6.15;;;16.80;57.20;;;;;;5112994;28;20173;-64
2024/03/07 12:12:07;;;;;;;6.85;6.25;;;16.80;57.10;;;;;;5113598;28;20180;-64
2024/03/07 12:14:33;;;;;;;6.97;6.32;;;16.80;57.10;;;;;;5113391;28;20173;-64
2024/03/07 12:17:00;;;;;;;7.57;6.85;;;16.80;57.10;;;;;;5111440;28;20213;-64
2024/03/07 12:19:26;;;;;;;6.97;6.22;;;16.80;57.10;;;;;;5111761;28;20165;-64
2024/03/07 12:21:56;;;;;;;6.70;6.10;;;16.80;57.10;;;;;;5113424;28;20173;-64
2024/03/07 12:24:22;;;;;;;6.40;5.90;;;16.80;57.10;;;;;;5111207;28;20176;-65
2024/03/07 12:26:47;;;;;;;6.82;6.18;;;16.80;57.10;;;;;;5113330;28;20191;-64
2024/03/07 12:29:13;;;;;;;7.10;6.50;;;16.80;57.10;;;;;;5112962;28;20169;-63
2024/03/07 12:31:39;;;;;;;7.10;6.40;;;16.80;57.10;;;;;;5112455;28;20192;-64
2024/03/07 12:34:05;;;;;;;7.13;6.43;;;16.80;57.00;;;;;;5111794;28;20201;-65
2024/03/07 12:36:34;;;;;;;7.13;6.53;;;16.90;57.00;;;;;;5112518;28;20208;-64
2024/03/07 12:39:24;;;;;;;7.15;6.45;;;16.90;57.00;;;;;;5111475;28;20312;-65
2024/03/07 12:41:52;;;;;;;7.40;6.60;;;16.90;57.00;;;;;;5111968;28;20177;-64
2024/03/07 12:44:19;;;;;;;6.63;6.03;;;16.90;57.00;;;;;;5111886;28;20609;-64